sensor_id;sensor_type;location;lat;lon;timestamp;P1;durP1;ratioP1;P2;durP2;ratioP2
84729;SDS011;74950;56.832;41.398;2023-12-20T00:02:14;0.43;;;0.30;;
84729;SDS011;74950;56.832;41.398;2023-12-20T00:04:40;0.35;;;0.30;;
84729;SDS011;74950;56.832;41.398;2023-12-20T00:07:06;0.40;;;0.28;;
84729;SDS011;74950;56.832;41.398;2023-12-20T00:09:32;0.25;;;0.10;;
84729;SDS011;74950;56.832;41.398;2023-12-20T00:11:58;0.10;;;0.10;;
84729;SDS011;74950;56.832;41.398;2023-12-20T00:14:24;0.40;;;0.30;;
84729;SDS011;74950;56.832;41.398;2023-12-20T00:16:50;0.30;;;0.30;;
84729;SDS011;74950;56.832;41.398;2023-12-20T00:19:16;0.45;;;0.20;;
84729;SDS011;74950;56.832;41.398;2023-12-20T00:21:42;0.20;;;0.20;;
84729;SDS011;74950;56.832;41.398;2023-12-20T00:24:09;0.43;;;0.30;;
84729;SDS011;74950;56.832;41.398;2023-12-20T00:26:35;1.83;;;0.60;;
84729;SDS011;74950;56.832;41.398;2023-12-20T00:29:01;0.30;;;0.30;;
84729;SDS011;74950;56.832;41.398;2023-12-20T00:31:27;0.20;;;0.20;;
84729;SDS011;74950;56.832;41.398;2023-12-20T00:33:53;0.20;;;0.20;;
84729;SDS011;74950;56.832;41.398;2023-12-20T00:36:20;0.38;;;0.10;;
84729;SDS011;74950;56.832;41.398;2023-12-20T00:38:46;0.98;;;0.10;;
84729;SDS011;74950;56.832;41.398;2023-12-20T00:41:12;0.30;;;0.20;;
84729;SDS011;74950;56.832;41.398;2023-12-20T00:43:38;0.90;;;0.10;;
84729;SDS011;74950;56.832;41.398;2023-12-20T00:46:04;1.45;;;0.20;;
84729;SDS011;74950;56.832;41.398;2023-12-20T00:48:30;0.30;;;0.22;;
84729;SDS011;74950;56.832;41.398;2023-12-20T00:50:57;0.13;;;0.13;;
84729;SDS011;74950;56.832;41.398;2023-12-20T00:53:23;1.20;;;0.30;;
84729;SDS011;74950;56.832;41.398;2023-12-20T00:55:49;0.30;;;0.30;;
84729;SDS011;74950;56.832;41.398;2023-12-20T00:58:15;0.20;;;0.20;;
84729;SDS011;74950;56.832;41.398;2023-12-20T01:00:43;0.05;;;0.03;;
84729;SDS011;74950;56.832;41.398;2023-12-20T01:03:09;0.32;;;0.25;;
84729;SDS011;74950;56.832;41.398;2023-12-20T01:05:36;0.35;;;0.17;;
84729;SDS011;74950;56.832;41.398;2023-12-20T01:08:02;0.20;;;0.20;;
84729;SDS011;74950;56.832;41.398;2023-12-20T01:10:29;0.55;;;0.20;;
84729;SDS011;74950;56.832;41.398;2023-12-20T01:12:55;0.77;;;0.40;;
84729;SDS011;74950;56.832;41.398;2023-12-20T01:15:21;1.48;;;0.32;;
84729;SDS011;74950;56.832;41.398;2023-12-20T01:17:47;2.38;;;1.52;;
84729;SDS011;74950;56.832;41.398;2023-12-20T01:20:14;3.25;;;1.73;;
84729;SDS011;74950;56.832;41.398;2023-12-20T01:22:41;10.65;;;3.95;;
84729;SDS011;74950;56.832;41.398;2023-12-20T01:25:08;9.30;;;3.80;;
84729;SDS011;74950;56.832;41.398;2023-12-20T01:27:34;7.22;;;2.88;;
84729;SDS011;74950;56.832;41.398;2023-12-20T01:30:00;9.60;;;3.58;;
84729;SDS011;74950;56.832;41.398;2023-12-20T01:32:26;10.82;;;3.92;;
84729;SDS011;74950;56.832;41.398;2023-12-20T01:34:53;5.95;;;1.98;;
84729;SDS011;74950;56.832;41.398;2023-12-20T01:37:19;0.57;;;0.40;;
84729;SDS011;74950;56.832;41.398;2023-12-20T01:39:45;1.52;;;0.50;;
84729;SDS011;74950;56.832;41.398;2023-12-20T01:42:11;1.17;;;0.65;;
84729;SDS011;74950;56.832;41.398;2023-12-20T01:44:55;2.85;;;0.90;;
84729;SDS011;74950;56.832;41.398;2023-12-20T01:47:22;1.52;;;0.80;;
84729;SDS011;74950;56.832;41.398;2023-12-20T01:49:48;2.38;;;0.70;;
84729;SDS011;74950;56.832;41.398;2023-12-20T01:52:15;5.07;;;1.15;;
84729;SDS011;74950;56.832;41.398;2023-12-20T01:54:41;1.98;;;0.77;;
84729;SDS011;74950;56.832;41.398;2023-12-20T01:57:08;1.40;;;0.70;;
84729;SDS011;74950;56.832;41.398;2023-12-20T01:59:34;1.88;;;0.50;;
84729;SDS011;74950;56.832;41.398;2023-12-20T02:02:01;2.08;;;0.50;;
84729;SDS011;74950;56.832;41.398;2023-12-20T02:04:29;0.93;;;0.35;;
84729;SDS011;74950;56.832;41.398;2023-12-20T02:06:55;0.40;;;0.30;;
84729;SDS011;74950;56.832;41.398;2023-12-20T02:09:22;0.57;;;0.20;;
84729;SDS011;74950;56.832;41.398;2023-12-20T02:11:49;0.73;;;0.30;;
84729;SDS011;74950;56.832;41.398;2023-12-20T02:14:15;1.05;;;0.30;;
84729;SDS011;74950;56.832;41.398;2023-12-20T02:16:41;0.50;;;0.45;;
84729;SDS011;74950;56.832;41.398;2023-12-20T02:19:09;0.30;;;0.30;;
84729;SDS011;74950;56.832;41.398;2023-12-20T02:21:39;3.92;;;1.85;;
84729;SDS011;74950;56.832;41.398;2023-12-20T02:24:05;3.42;;;1.50;;
84729;SDS011;74950;56.832;41.398;2023-12-20T02:26:32;2.05;;;1.23;;
84729;SDS011;74950;56.832;41.398;2023-12-20T02:28:59;0.70;;;0.60;;
84729;SDS011;74950;56.832;41.398;2023-12-20T02:31:25;0.47;;;0.40;;
84729;SDS011;74950;56.832;41.398;2023-12-20T02:33:51;0.30;;;0.30;;
84729;SDS011;74950;56.832;41.398;2023-12-20T02:36:18;1.23;;;0.35;;
84729;SDS011;74950;56.832;41.398;2023-12-20T02:38:44;0.32;;;0.32;;
84729;SDS011;74950;56.832;41.398;2023-12-20T02:41:10;0.52;;;0.40;;
84729;SDS011;74950;56.832;41.398;2023-12-20T02:43:36;0.35;;;0.35;;
84729;SDS011;74950;56.832;41.398;2023-12-20T02:46:02;1.25;;;0.50;;
84729;SDS011;74950;56.832;41.398;2023-12-20T02:48:28;0.45;;;0.45;;
84729;SDS011;74950;56.832;41.398;2023-12-20T02:50:54;0.50;;;0.47;;
84729;SDS011;74950;56.832;41.398;2023-12-20T02:53:20;0.85;;;0.43;;
84729;SDS011;74950;56.832;41.398;2023-12-20T02:55:46;1.05;;;0.65;;
84729;SDS011;74950;56.832;41.398;2023-12-20T02:58:12;1.20;;;0.50;;
84729;SDS011;74950;56.832;41.398;2023-12-20T03:00:39;0.70;;;0.52;;
84729;SDS011;74950;56.832;41.398;2023-12-20T03:03:05;0.52;;;0.40;;
84729;SDS011;74950;56.832;41.398;2023-12-20T03:05:31;1.63;;;0.50;;
84729;SDS011;74950;56.832;41.398;2023-12-20T03:07:57;1.00;;;0.47;;
84729;SDS011;74950;56.832;41.398;2023-12-20T03:10:23;0.65;;;0.45;;
84729;SDS011;74950;56.832;41.398;2023-12-20T03:12:49;1.77;;;0.63;;
84729;SDS011;74950;56.832;41.398;2023-12-20T03:15:15;1.10;;;0.60;;
84729;SDS011;74950;56.832;41.398;2023-12-20T03:17:41;0.68;;;0.32;;
84729;SDS011;74950;56.832;41.398;2023-12-20T03:20:08;2.65;;;0.50;;
84729;SDS011;74950;56.832;41.398;2023-12-20T03:22:34;0.88;;;0.50;;
84729;SDS011;74950;56.832;41.398;2023-12-20T03:25:00;0.90;;;0.50;;
84729;SDS011;74950;56.832;41.398;2023-12-20T03:27:27;0.75;;;0.50;;
84729;SDS011;74950;56.832;41.398;2023-12-20T03:29:53;0.40;;;0.40;;
84729;SDS011;74950;56.832;41.398;2023-12-20T03:32:19;0.30;;;0.30;;
84729;SDS011;74950;56.832;41.398;2023-12-20T03:34:45;0.88;;;0.63;;
84729;SDS011;74950;56.832;41.398;2023-12-20T03:37:11;0.50;;;0.50;;
84729;SDS011;74950;56.832;41.398;2023-12-20T03:39:37;0.93;;;0.60;;
84729;SDS011;74950;56.832;41.398;2023-12-20T03:42:03;0.50;;;0.50;;
84729;SDS011;74950;56.832;41.398;2023-12-20T03:44:30;0.80;;;0.60;;
84729;SDS011;74950;56.832;41.398;2023-12-20T03:46:56;0.77;;;0.60;;
84729;SDS011;74950;56.832;41.398;2023-12-20T03:49:22;0.50;;;0.50;;
84729;SDS011;74950;56.832;41.398;2023-12-20T03:51:48;0.80;;;0.57;;
84729;SDS011;74950;56.832;41.398;2023-12-20T03:54:14;1.45;;;0.47;;
84729;SDS011;74950;56.832;41.398;2023-12-20T03:56:40;1.00;;;0.60;;
84729;SDS011;74950;56.832;41.398;2023-12-20T03:59:25;0.85;;;0.40;;
84729;SDS011;74950;56.832;41.398;2023-12-20T04:01:51;1.23;;;1.00;;
84729;SDS011;74950;56.832;41.398;2023-12-20T04:04:17;0.70;;;0.47;;
84729;SDS011;74950;56.832;41.398;2023-12-20T04:07:01;0.65;;;0.40;;
84729;SDS011;74950;56.832;41.398;2023-12-20T04:09:28;0.98;;;0.30;;
84729;SDS011;74950;56.832;41.398;2023-12-20T04:11:54;0.77;;;0.20;;
84729;SDS011;74950;56.832;41.398;2023-12-20T04:14:20;0.30;;;0.30;;
84729;SDS011;74950;56.832;41.398;2023-12-20T04:16:46;1.83;;;0.60;;
84729;SDS011;74950;56.832;41.398;2023-12-20T04:19:12;0.55;;;0.40;;
84729;SDS011;74950;56.832;41.398;2023-12-20T04:21:38;1.17;;;0.50;;
84729;SDS011;74950;56.832;41.398;2023-12-20T04:24:04;0.43;;;0.43;;
84729;SDS011;74950;56.832;41.398;2023-12-20T04:26:30;0.50;;;0.50;;
84729;SDS011;74950;56.832;41.398;2023-12-20T04:28:56;0.60;;;0.60;;
84729;SDS011;74950;56.832;41.398;2023-12-20T04:31:22;0.52;;;0.43;;
84729;SDS011;74950;56.832;41.398;2023-12-20T04:34:06;0.70;;;0.50;;
84729;SDS011;74950;56.832;41.398;2023-12-20T04:36:32;0.88;;;0.40;;
84729;SDS011;74950;56.832;41.398;2023-12-20T04:38:58;0.57;;;0.38;;
84729;SDS011;74950;56.832;41.398;2023-12-20T04:41:25;0.43;;;0.40;;
84729;SDS011;74950;56.832;41.398;2023-12-20T04:43:54;1.35;;;0.98;;
84729;SDS011;74950;56.832;41.398;2023-12-20T04:46:20;0.75;;;0.70;;
84729;SDS011;74950;56.832;41.398;2023-12-20T04:48:46;0.88;;;0.70;;
84729;SDS011;74950;56.832;41.398;2023-12-20T04:51:12;0.60;;;0.60;;
84729;SDS011;74950;56.832;41.398;2023-12-20T04:53:38;0.68;;;0.68;;
84729;SDS011;74950;56.832;41.398;2023-12-20T04:56:04;1.15;;;0.70;;
84729;SDS011;74950;56.832;41.398;2023-12-20T04:58:30;1.70;;;0.73;;
84729;SDS011;74950;56.832;41.398;2023-12-20T05:01:15;0.82;;;0.50;;
84729;SDS011;74950;56.832;41.398;2023-12-20T05:03:41;0.50;;;0.50;;
84729;SDS011;74950;56.832;41.398;2023-12-20T05:06:07;0.63;;;0.50;;
84729;SDS011;74950;56.832;41.398;2023-12-20T05:08:33;1.05;;;0.80;;
84729;SDS011;74950;56.832;41.398;2023-12-20T05:10:59;1.17;;;0.57;;
84729;SDS011;74950;56.832;41.398;2023-12-20T05:13:26;1.92;;;0.95;;
84729;SDS011;74950;56.832;41.398;2023-12-20T05:15:52;0.73;;;0.50;;
84729;SDS011;74950;56.832;41.398;2023-12-20T05:18:18;2.00;;;0.70;;
84729;SDS011;74950;56.832;41.398;2023-12-20T05:20:45;0.60;;;0.55;;
84729;SDS011;74950;56.832;41.398;2023-12-20T05:23:12;1.38;;;0.60;;
84729;SDS011;74950;56.832;41.398;2023-12-20T05:25:39;1.02;;;0.57;;
84729;SDS011;74950;56.832;41.398;2023-12-20T05:28:05;0.30;;;0.30;;
84729;SDS011;74950;56.832;41.398;2023-12-20T05:30:31;0.47;;;0.40;;
84729;SDS011;74950;56.832;41.398;2023-12-20T05:32:57;0.65;;;0.43;;
84729;SDS011;74950;56.832;41.398;2023-12-20T05:35:23;0.50;;;0.40;;
84729;SDS011;74950;56.832;41.398;2023-12-20T05:37:49;1.25;;;1.00;;
84729;SDS011;74950;56.832;41.398;2023-12-20T05:40:15;1.38;;;0.40;;
84729;SDS011;74950;56.832;41.398;2023-12-20T05:42:41;0.82;;;0.60;;
84729;SDS011;74950;56.832;41.398;2023-12-20T05:45:09;1.17;;;0.60;;
84729;SDS011;74950;56.832;41.398;2023-12-20T05:47:35;1.45;;;0.80;;
84729;SDS011;74950;56.832;41.398;2023-12-20T05:50:01;0.43;;;0.43;;
84729;SDS011;74950;56.832;41.398;2023-12-20T05:52:29;1.23;;;0.60;;
84729;SDS011;74950;56.832;41.398;2023-12-20T05:54:55;0.85;;;0.50;;
84729;SDS011;74950;56.832;41.398;2023-12-20T05:57:23;0.95;;;0.52;;
84729;SDS011;74950;56.832;41.398;2023-12-20T05:59:49;1.48;;;0.70;;
84729;SDS011;74950;56.832;41.398;2023-12-20T06:02:15;0.77;;;0.50;;
84729;SDS011;74950;56.832;41.398;2023-12-20T06:04:42;1.77;;;0.60;;
84729;SDS011;74950;56.832;41.398;2023-12-20T06:07:11;1.48;;;0.60;;
84729;SDS011;74950;56.832;41.398;2023-12-20T06:09:38;1.08;;;0.70;;
84729;SDS011;74950;56.832;41.398;2023-12-20T06:12:04;1.23;;;0.60;;
84729;SDS011;74950;56.832;41.398;2023-12-20T06:14:30;4.03;;;1.08;;
84729;SDS011;74950;56.832;41.398;2023-12-20T06:16:57;1.35;;;0.57;;
84729;SDS011;74950;56.832;41.398;2023-12-20T06:19:23;4.95;;;1.20;;
84729;SDS011;74950;56.832;41.398;2023-12-20T06:21:49;2.33;;;0.80;;
84729;SDS011;74950;56.832;41.398;2023-12-20T06:24:15;0.98;;;0.85;;
84729;SDS011;74950;56.832;41.398;2023-12-20T06:26:42;1.08;;;0.95;;
84729;SDS011;74950;56.832;41.398;2023-12-20T06:29:08;1.20;;;0.80;;
84729;SDS011;74950;56.832;41.398;2023-12-20T06:31:34;0.93;;;0.80;;
84729;SDS011;74950;56.832;41.398;2023-12-20T06:34:00;0.60;;;0.60;;
84729;SDS011;74950;56.832;41.398;2023-12-20T06:36:30;1.67;;;0.73;;
84729;SDS011;74950;56.832;41.398;2023-12-20T06:38:56;1.20;;;0.90;;
84729;SDS011;74950;56.832;41.398;2023-12-20T06:41:22;2.13;;;0.98;;
84729;SDS011;74950;56.832;41.398;2023-12-20T06:43:50;2.78;;;0.82;;
84729;SDS011;74950;56.832;41.398;2023-12-20T06:46:17;1.08;;;0.88;;
84729;SDS011;74950;56.832;41.398;2023-12-20T06:48:43;0.88;;;0.80;;
84729;SDS011;74950;56.832;41.398;2023-12-20T06:51:14;1.35;;;0.82;;
84729;SDS011;74950;56.832;41.398;2023-12-20T06:53:52;0.95;;;0.93;;
84729;SDS011;74950;56.832;41.398;2023-12-20T06:56:18;2.88;;;0.80;;
84729;SDS011;74950;56.832;41.398;2023-12-20T06:58:44;2.10;;;1.00;;
84729;SDS011;74950;56.832;41.398;2023-12-20T07:01:11;0.95;;;0.90;;
84729;SDS011;74950;56.832;41.398;2023-12-20T07:03:38;2.95;;;1.27;;
84729;SDS011;74950;56.832;41.398;2023-12-20T07:06:06;3.63;;;1.33;;
84729;SDS011;74950;56.832;41.398;2023-12-20T07:08:32;2.10;;;1.58;;
84729;SDS011;74950;56.832;41.398;2023-12-20T07:10:59;2.47;;;1.30;;
84729;SDS011;74950;56.832;41.398;2023-12-20T07:13:25;1.80;;;1.33;;
84729;SDS011;74950;56.832;41.398;2023-12-20T07:15:51;1.75;;;1.30;;
84729;SDS011;74950;56.832;41.398;2023-12-20T07:18:18;3.63;;;1.40;;
84729;SDS011;74950;56.832;41.398;2023-12-20T07:20:44;1.83;;;1.17;;
84729;SDS011;74950;56.832;41.398;2023-12-20T07:23:10;2.10;;;1.60;;
84729;SDS011;74950;56.832;41.398;2023-12-20T07:25:36;1.70;;;1.15;;
84729;SDS011;74950;56.832;41.398;2023-12-20T07:28:06;4.38;;;1.70;;
84729;SDS011;74950;56.832;41.398;2023-12-20T07:30:32;1.77;;;1.50;;
84729;SDS011;74950;56.832;41.398;2023-12-20T07:32:58;4.13;;;1.60;;
84729;SDS011;74950;56.832;41.398;2023-12-20T07:35:24;3.90;;;1.25;;
84729;SDS011;74950;56.832;41.398;2023-12-20T07:37:50;2.78;;;1.40;;
84729;SDS011;74950;56.832;41.398;2023-12-20T07:40:16;2.55;;;1.90;;
84729;SDS011;74950;56.832;41.398;2023-12-20T07:42:43;1.70;;;1.25;;
84729;SDS011;74950;56.832;41.398;2023-12-20T07:47:38;2.88;;;1.70;;
84729;SDS011;74950;56.832;41.398;2023-12-20T07:50:06;1.83;;;1.45;;
84729;SDS011;74950;56.832;41.398;2023-12-20T07:52:32;1.73;;;1.35;;
84729;SDS011;74950;56.832;41.398;2023-12-20T07:54:58;3.63;;;1.17;;
84729;SDS011;74950;56.832;41.398;2023-12-20T07:57:25;2.28;;;1.35;;
84729;SDS011;74950;56.832;41.398;2023-12-20T08:02:20;3.95;;;1.48;;
84729;SDS011;74950;56.832;41.398;2023-12-20T08:04:46;1.83;;;1.50;;
84729;SDS011;74950;56.832;41.398;2023-12-20T08:09:41;2.38;;;1.73;;
84729;SDS011;74950;56.832;41.398;2023-12-20T08:12:07;2.15;;;1.23;;
84729;SDS011;74950;56.832;41.398;2023-12-20T08:14:35;4.07;;;1.45;;
84729;SDS011;74950;56.832;41.398;2023-12-20T08:17:01;1.58;;;1.20;;
84729;SDS011;74950;56.832;41.398;2023-12-20T08:19:27;1.80;;;1.42;;
84729;SDS011;74950;56.832;41.398;2023-12-20T08:21:53;2.05;;;1.40;;
84729;SDS011;74950;56.832;41.398;2023-12-20T08:24:19;2.20;;;1.65;;
84729;SDS011;74950;56.832;41.398;2023-12-20T08:26:45;2.88;;;1.75;;
84729;SDS011;74950;56.832;41.398;2023-12-20T08:29:14;2.17;;;1.50;;
84729;SDS011;74950;56.832;41.398;2023-12-20T08:31:59;2.85;;;1.23;;
84729;SDS011;74950;56.832;41.398;2023-12-20T08:34:26;2.05;;;1.30;;
84729;SDS011;74950;56.832;41.398;2023-12-20T08:36:52;2.13;;;1.27;;
84729;SDS011;74950;56.832;41.398;2023-12-20T08:39:18;2.10;;;1.30;;
84729;SDS011;74950;56.832;41.398;2023-12-20T08:41:44;2.47;;;1.45;;
84729;SDS011;74950;56.832;41.398;2023-12-20T08:44:10;3.15;;;1.50;;
84729;SDS011;74950;56.832;41.398;2023-12-20T08:46:36;1.95;;;1.33;;
84729;SDS011;74950;56.832;41.398;2023-12-20T08:49:21;3.25;;;1.77;;
84729;SDS011;74950;56.832;41.398;2023-12-20T08:51:47;2.75;;;1.23;;
84729;SDS011;74950;56.832;41.398;2023-12-20T08:54:13;1.80;;;1.17;;
84729;SDS011;74950;56.832;41.398;2023-12-20T08:56:58;2.10;;;1.40;;
84729;SDS011;74950;56.832;41.398;2023-12-20T08:59:24;3.42;;;1.42;;
84729;SDS011;74950;56.832;41.398;2023-12-20T09:01:51;1.27;;;1.08;;
84729;SDS011;74950;56.832;41.398;2023-12-20T09:04:20;2.85;;;1.50;;
84729;SDS011;74950;56.832;41.398;2023-12-20T09:06:46;4.22;;;1.60;;
84729;SDS011;74950;56.832;41.398;2023-12-20T09:09:12;2.22;;;1.02;;
84729;SDS011;74950;56.832;41.398;2023-12-20T09:14:07;2.42;;;1.30;;
84729;SDS011;74950;56.832;41.398;2023-12-20T09:16:34;1.77;;;1.10;;
84729;SDS011;74950;56.832;41.398;2023-12-20T09:19:00;1.88;;;1.10;;
84729;SDS011;74950;56.832;41.398;2023-12-20T09:21:26;1.30;;;1.20;;
84729;SDS011;74950;56.832;41.398;2023-12-20T09:23:52;1.33;;;1.10;;
84729;SDS011;74950;56.832;41.398;2023-12-20T09:26:18;2.03;;;0.90;;
84729;SDS011;74950;56.832;41.398;2023-12-20T09:28:44;4.97;;;1.00;;
84729;SDS011;74950;56.832;41.398;2023-12-20T09:31:10;1.85;;;1.50;;
84729;SDS011;74950;56.832;41.398;2023-12-20T09:33:36;3.63;;;1.42;;
84729;SDS011;74950;56.832;41.398;2023-12-20T09:36:02;1.17;;;0.80;;
84729;SDS011;74950;56.832;41.398;2023-12-20T09:38:29;3.67;;;1.35;;
84729;SDS011;74950;56.832;41.398;2023-12-20T09:40:55;2.00;;;0.90;;
84729;SDS011;74950;56.832;41.398;2023-12-20T09:43:41;0.75;;;0.65;;
84729;SDS011;74950;56.832;41.398;2023-12-20T09:46:07;0.60;;;0.60;;
84729;SDS011;74950;56.832;41.398;2023-12-20T09:48:36;1.30;;;0.70;;
84729;SDS011;74950;56.832;41.398;2023-12-20T09:51:21;1.33;;;0.73;;
84729;SDS011;74950;56.832;41.398;2023-12-20T09:53:47;0.65;;;0.60;;
84729;SDS011;74950;56.832;41.398;2023-12-20T09:56:14;2.00;;;1.00;;
84729;SDS011;74950;56.832;41.398;2023-12-20T09:58:41;1.48;;;0.75;;
84729;SDS011;74950;56.832;41.398;2023-12-20T10:01:07;1.88;;;0.75;;
84729;SDS011;74950;56.832;41.398;2023-12-20T10:03:33;3.30;;;1.08;;
84729;SDS011;74950;56.832;41.398;2023-12-20T10:06:00;0.60;;;0.60;;
84729;SDS011;74950;56.832;41.398;2023-12-20T10:08:26;1.20;;;0.60;;
84729;SDS011;74950;56.832;41.398;2023-12-20T10:10:52;1.25;;;0.68;;
84729;SDS011;74950;56.832;41.398;2023-12-20T10:13:18;1.90;;;0.70;;
84729;SDS011;74950;56.832;41.398;2023-12-20T10:15:44;1.17;;;0.82;;
84729;SDS011;74950;56.832;41.398;2023-12-20T10:18:11;2.75;;;1.10;;
84729;SDS011;74950;56.832;41.398;2023-12-20T10:20:37;4.05;;;1.08;;
84729;SDS011;74950;56.832;41.398;2023-12-20T10:23:06;1.70;;;1.20;;
84729;SDS011;74950;56.832;41.398;2023-12-20T10:25:32;2.42;;;1.02;;
84729;SDS011;74950;56.832;41.398;2023-12-20T10:28:10;2.38;;;1.20;;
84729;SDS011;74950;56.832;41.398;2023-12-20T10:30:44;2.33;;;0.95;;
84729;SDS011;74950;56.832;41.398;2023-12-20T10:33:10;3.05;;;1.17;;
84729;SDS011;74950;56.832;41.398;2023-12-20T10:35:37;2.05;;;1.08;;
84729;SDS011;74950;56.832;41.398;2023-12-20T10:38:04;2.42;;;0.90;;
84729;SDS011;74950;56.832;41.398;2023-12-20T10:40:31;0.60;;;0.60;;
84729;SDS011;74950;56.832;41.398;2023-12-20T10:45:26;2.22;;;1.20;;
84729;SDS011;74950;56.832;41.398;2023-12-20T10:47:52;5.53;;;0.95;;
84729;SDS011;74950;56.832;41.398;2023-12-20T10:50:19;3.85;;;0.90;;
84729;SDS011;74950;56.832;41.398;2023-12-20T10:52:46;3.10;;;1.77;;
84729;SDS011;74950;56.832;41.398;2023-12-20T10:55:13;1.58;;;0.80;;
84729;SDS011;74950;56.832;41.398;2023-12-20T10:57:39;2.67;;;0.75;;
84729;SDS011;74950;56.832;41.398;2023-12-20T11:00:06;1.95;;;0.95;;
84729;SDS011;74950;56.832;41.398;2023-12-20T11:05:33;2.33;;;0.85;;
84729;SDS011;74950;56.832;41.398;2023-12-20T11:08:11;1.20;;;0.80;;
84729;SDS011;74950;56.832;41.398;2023-12-20T11:11:14;1.67;;;1.00;;
84729;SDS011;74950;56.832;41.398;2023-12-20T11:13:43;1.83;;;0.90;;
84729;SDS011;74950;56.832;41.398;2023-12-20T11:16:33;1.58;;;1.15;;
84729;SDS011;74950;56.832;41.398;2023-12-20T11:19:07;1.38;;;1.00;;
84729;SDS011;74950;56.832;41.398;2023-12-20T11:21:33;1.33;;;0.93;;
84729;SDS011;74950;56.832;41.398;2023-12-20T11:23:59;3.45;;;1.38;;
84729;SDS011;74950;56.832;41.398;2023-12-20T11:26:29;2.80;;;1.00;;
84729;SDS011;74950;56.832;41.398;2023-12-20T11:30:02;2.78;;;1.35;;
84729;SDS011;74950;56.832;41.398;2023-12-20T11:34:56;1.00;;;0.90;;
84729;SDS011;74950;56.832;41.398;2023-12-20T11:37:30;1.77;;;0.57;;
84729;SDS011;74950;56.832;41.398;2023-12-20T11:40:02;1.27;;;0.77;;
84729;SDS011;74950;56.832;41.398;2023-12-20T11:42:33;0.82;;;0.73;;
84729;SDS011;74950;56.832;41.398;2023-12-20T11:45:03;4.50;;;1.42;;
84729;SDS011;74950;56.832;41.398;2023-12-20T11:47:31;1.23;;;0.75;;
84729;SDS011;74950;56.832;41.398;2023-12-20T11:49:57;0.77;;;0.77;;
84729;SDS011;74950;56.832;41.398;2023-12-20T11:52:26;1.50;;;0.90;;
84729;SDS011;74950;56.832;41.398;2023-12-20T11:55:10;1.17;;;0.60;;
84729;SDS011;74950;56.832;41.398;2023-12-20T11:57:37;2.00;;;0.80;;
84729;SDS011;74950;56.832;41.398;2023-12-20T12:00:03;1.15;;;0.80;;
84729;SDS011;74950;56.832;41.398;2023-12-20T12:02:55;1.98;;;1.20;;
84729;SDS011;74950;56.832;41.398;2023-12-20T12:05:22;1.70;;;1.05;;
84729;SDS011;74950;56.832;41.398;2023-12-20T12:07:48;2.63;;;0.80;;
84729;SDS011;74950;56.832;41.398;2023-12-20T12:10:14;2.30;;;0.77;;
84729;SDS011;74950;56.832;41.398;2023-12-20T12:12:41;2.95;;;0.90;;
84729;SDS011;74950;56.832;41.398;2023-12-20T12:15:07;1.08;;;0.68;;
84729;SDS011;74950;56.832;41.398;2023-12-20T12:17:34;4.18;;;0.68;;
84729;SDS011;74950;56.832;41.398;2023-12-20T12:20:04;2.70;;;0.90;;
84729;SDS011;74950;56.832;41.398;2023-12-20T12:22:31;1.67;;;1.00;;
84729;SDS011;74950;56.832;41.398;2023-12-20T12:24:59;2.90;;;0.70;;
84729;SDS011;74950;56.832;41.398;2023-12-20T12:27:34;1.02;;;0.60;;
84729;SDS011;74950;56.832;41.398;2023-12-20T12:30:04;0.98;;;0.60;;
84729;SDS011;74950;56.832;41.398;2023-12-20T12:32:32;1.13;;;0.57;;
84729;SDS011;74950;56.832;41.398;2023-12-20T12:34:58;2.80;;;0.95;;
84729;SDS011;74950;56.832;41.398;2023-12-20T12:37:25;1.73;;;0.85;;
84729;SDS011;74950;56.832;41.398;2023-12-20T12:39:55;4.38;;;1.38;;
84729;SDS011;74950;56.832;41.398;2023-12-20T12:42:21;0.80;;;0.70;;
84729;SDS011;74950;56.832;41.398;2023-12-20T12:44:51;1.77;;;0.80;;
84729;SDS011;74950;56.832;41.398;2023-12-20T12:47:17;3.90;;;0.80;;
84729;SDS011;74950;56.832;41.398;2023-12-20T12:49:44;1.38;;;0.98;;
84729;SDS011;74950;56.832;41.398;2023-12-20T12:52:10;1.67;;;0.90;;
84729;SDS011;74950;56.832;41.398;2023-12-20T12:54:36;2.65;;;1.08;;
84729;SDS011;74950;56.832;41.398;2023-12-20T12:57:02;2.05;;;1.00;;
84729;SDS011;74950;56.832;41.398;2023-12-20T12:59:28;1.95;;;0.93;;
84729;SDS011;74950;56.832;41.398;2023-12-20T13:01:54;1.67;;;0.80;;
84729;SDS011;74950;56.832;41.398;2023-12-20T13:04:20;4.90;;;1.20;;
84729;SDS011;74950;56.832;41.398;2023-12-20T13:07:04;1.42;;;1.33;;
84729;SDS011;74950;56.832;41.398;2023-12-20T13:09:31;4.93;;;3.03;;
84729;SDS011;74950;56.832;41.398;2023-12-20T13:11:57;1.15;;;0.90;;
84729;SDS011;74950;56.832;41.398;2023-12-20T13:14:24;1.05;;;0.75;;
84729;SDS011;74950;56.832;41.398;2023-12-20T13:16:50;3.00;;;0.98;;
84729;SDS011;74950;56.832;41.398;2023-12-20T13:19:16;2.40;;;1.13;;
84729;SDS011;74950;56.832;41.398;2023-12-20T13:21:42;2.95;;;1.02;;
84729;SDS011;74950;56.832;41.398;2023-12-20T13:24:09;2.40;;;1.38;;
84729;SDS011;74950;56.832;41.398;2023-12-20T13:26:35;1.70;;;1.20;;
84729;SDS011;74950;56.832;41.398;2023-12-20T13:29:01;3.28;;;1.08;;
84729;SDS011;74950;56.832;41.398;2023-12-20T13:31:28;2.03;;;1.08;;
84729;SDS011;74950;56.832;41.398;2023-12-20T13:33:54;3.03;;;1.00;;
84729;SDS011;74950;56.832;41.398;2023-12-20T13:36:20;2.60;;;0.90;;
84729;SDS011;74950;56.832;41.398;2023-12-20T13:38:46;3.80;;;1.30;;
84729;SDS011;74950;56.832;41.398;2023-12-20T13:41:13;2.05;;;1.20;;
84729;SDS011;74950;56.832;41.398;2023-12-20T13:43:39;3.25;;;1.00;;
84729;SDS011;74950;56.832;41.398;2023-12-20T13:46:05;2.10;;;1.02;;
84729;SDS011;74950;56.832;41.398;2023-12-20T13:48:31;2.47;;;1.40;;
84729;SDS011;74950;56.832;41.398;2023-12-20T13:50:57;4.10;;;1.30;;
84729;SDS011;74950;56.832;41.398;2023-12-20T13:53:23;3.42;;;1.20;;
84729;SDS011;74950;56.832;41.398;2023-12-20T13:55:49;2.85;;;1.77;;
84729;SDS011;74950;56.832;41.398;2023-12-20T13:58:15;3.17;;;1.30;;
84729;SDS011;74950;56.832;41.398;2023-12-20T14:00:41;5.93;;;1.95;;
84729;SDS011;74950;56.832;41.398;2023-12-20T14:03:07;4.50;;;1.77;;
84729;SDS011;74950;56.832;41.398;2023-12-20T14:05:35;4.60;;;1.90;;
84729;SDS011;74950;56.832;41.398;2023-12-20T14:08:01;3.97;;;2.22;;
84729;SDS011;74950;56.832;41.398;2023-12-20T14:10:27;2.42;;;1.58;;
84729;SDS011;74950;56.832;41.398;2023-12-20T14:12:53;4.80;;;1.27;;
84729;SDS011;74950;56.832;41.398;2023-12-20T14:15:21;3.67;;;1.05;;
84729;SDS011;74950;56.832;41.398;2023-12-20T14:17:47;1.83;;;0.93;;
84729;SDS011;74950;56.832;41.398;2023-12-20T14:20:13;3.08;;;1.15;;
84729;SDS011;74950;56.832;41.398;2023-12-20T14:22:39;3.38;;;1.10;;
84729;SDS011;74950;56.832;41.398;2023-12-20T14:25:13;5.35;;;1.30;;
84729;SDS011;74950;56.832;41.398;2023-12-20T14:27:40;2.75;;;1.50;;
84729;SDS011;74950;56.832;41.398;2023-12-20T14:30:09;5.43;;;1.70;;
84729;SDS011;74950;56.832;41.398;2023-12-20T14:32:35;4.18;;;1.65;;
84729;SDS011;74950;56.832;41.398;2023-12-20T14:35:05;4.28;;;1.67;;
84729;SDS011;74950;56.832;41.398;2023-12-20T14:37:32;6.15;;;1.38;;
84729;SDS011;74950;56.832;41.398;2023-12-20T14:39:58;2.58;;;1.10;;
84729;SDS011;74950;56.832;41.398;2023-12-20T14:42:24;2.85;;;1.30;;
84729;SDS011;74950;56.832;41.398;2023-12-20T14:44:50;3.20;;;1.60;;
84729;SDS011;74950;56.832;41.398;2023-12-20T14:47:17;4.10;;;1.60;;
84729;SDS011;74950;56.832;41.398;2023-12-20T14:49:43;1.50;;;1.20;;
84729;SDS011;74950;56.832;41.398;2023-12-20T14:52:09;4.63;;;1.25;;
84729;SDS011;74950;56.832;41.398;2023-12-20T14:54:37;4.30;;;1.65;;